sensor_id;sensor_type;location;lat;lon;timestamp;P1;durP1;ratioP1;P2;durP2;ratioP2
13102;SDS011;52970;46.752;17.108;2023-03-24T00:01:57;14.02;;;10.63;;
13102;SDS011;52970;46.752;17.108;2023-03-24T00:04:22;12.20;;;9.70;;
13102;SDS011;52970;46.752;17.108;2023-03-24T00:06:49;9.75;;;8.63;;
13102;SDS011;52970;46.752;17.108;2023-03-24T00:09:14;10.20;;;8.63;;
13102;SDS011;52970;46.752;17.108;2023-03-24T00:11:40;9.15;;;8.20;;
13102;SDS011;52970;46.752;17.108;2023-03-24T00:14:05;11.90;;;10.05;;
13102;SDS011;52970;46.752;17.108;2023-03-24T00:16:31;13.60;;;10.15;;
13102;SDS011;52970;46.752;17.108;2023-03-24T00:18:58;14.57;;;10.00;;
13102;SDS011;52970;46.752;17.108;2023-03-24T00:21:24;12.85;;;9.07;;
13102;SDS011;52970;46.752;17.108;2023-03-24T00:23:49;11.73;;;8.85;;
13102;SDS011;52970;46.752;17.108;2023-03-24T00:26:18;11.43;;;9.18;;
13102;SDS011;52970;46.752;17.108;2023-03-24T00:28:44;9.52;;;8.63;;
13102;SDS011;52970;46.752;17.108;2023-03-24T00:31:10;8.95;;;7.72;;
13102;SDS011;52970;46.752;17.108;2023-03-24T00:33:38;11.35;;;8.68;;
13102;SDS011;52970;46.752;17.108;2023-03-24T00:36:05;40.25;;;21.35;;
13102;SDS011;52970;46.752;17.108;2023-03-24T00:38:31;18.15;;;11.98;;
13102;SDS011;52970;46.752;17.108;2023-03-24T00:40:58;49.85;;;23.58;;
13102;SDS011;52970;46.752;17.108;2023-03-24T00:43:24;48.95;;;21.75;;
13102;SDS011;52970;46.752;17.108;2023-03-24T00:45:49;38.63;;;21.55;;
13102;SDS011;52970;46.752;17.108;2023-03-24T00:48:16;23.30;;;13.65;;
13102;SDS011;52970;46.752;17.108;2023-03-24T00:50:46;23.48;;;14.57;;
13102;SDS011;52970;46.752;17.108;2023-03-24T00:53:12;21.13;;;12.32;;
13102;SDS011;52970;46.752;17.108;2023-03-24T00:55:39;15.80;;;10.95;;
13102;SDS011;52970;46.752;17.108;2023-03-24T00:58:04;16.10;;;9.80;;
13102;SDS011;52970;46.752;17.108;2023-03-24T01:00:30;16.83;;;9.93;;
13102;SDS011;52970;46.752;17.108;2023-03-24T01:02:56;10.98;;;8.38;;
13102;SDS011;52970;46.752;17.108;2023-03-24T01:05:22;10.07;;;8.00;;
13102;SDS011;52970;46.752;17.108;2023-03-24T01:07:48;9.50;;;8.18;;
13102;SDS011;52970;46.752;17.108;2023-03-24T01:10:16;11.82;;;7.85;;
13102;SDS011;52970;46.752;17.108;2023-03-24T01:12:41;8.38;;;7.57;;
13102;SDS011;52970;46.752;17.108;2023-03-24T01:15:10;34.42;;;15.13;;
13102;SDS011;52970;46.752;17.108;2023-03-24T01:17:35;21.83;;;11.55;;
13102;SDS011;52970;46.752;17.108;2023-03-24T01:20:00;14.43;;;9.60;;
13102;SDS011;52970;46.752;17.108;2023-03-24T01:22:32;22.67;;;13.85;;
13102;SDS011;52970;46.752;17.108;2023-03-24T01:25:02;30.35;;;15.23;;
13102;SDS011;52970;46.752;17.108;2023-03-24T01:27:27;21.67;;;12.57;;
13102;SDS011;52970;46.752;17.108;2023-03-24T01:29:56;24.42;;;12.45;;
13102;SDS011;52970;46.752;17.108;2023-03-24T01:32:22;21.10;;;12.30;;
13102;SDS011;52970;46.752;17.108;2023-03-24T01:34:47;14.52;;;10.50;;
13102;SDS011;52970;46.752;17.108;2023-03-24T01:37:12;9.52;;;8.35;;
13102;SDS011;52970;46.752;17.108;2023-03-24T01:39:37;40.60;;;17.27;;
13102;SDS011;52970;46.752;17.108;2023-03-24T01:42:03;20.45;;;11.70;;
13102;SDS011;52970;46.752;17.108;2023-03-24T01:44:34;21.60;;;12.02;;
13102;SDS011;52970;46.752;17.108;2023-03-24T01:47:00;20.00;;;12.00;;
13102;SDS011;52970;46.752;17.108;2023-03-24T01:49:28;17.45;;;10.68;;
13102;SDS011;52970;46.752;17.108;2023-03-24T01:51:56;19.30;;;10.35;;
13102;SDS011;52970;46.752;17.108;2023-03-24T01:54:23;8.25;;;7.40;;
13102;SDS011;52970;46.752;17.108;2023-03-24T01:56:55;12.23;;;8.02;;
13102;SDS011;52970;46.752;17.108;2023-03-24T01:59:22;14.98;;;8.35;;
13102;SDS011;52970;46.752;17.108;2023-03-24T02:01:48;11.13;;;7.95;;
13102;SDS011;52970;46.752;17.108;2023-03-24T02:04:14;11.50;;;8.48;;
13102;SDS011;52970;46.752;17.108;2023-03-24T02:06:40;8.95;;;7.10;;
13102;SDS011;52970;46.752;17.108;2023-03-24T02:09:08;12.10;;;7.22;;
13102;SDS011;52970;46.752;17.108;2023-03-24T02:11:34;9.15;;;7.25;;
13102;SDS011;52970;46.752;17.108;2023-03-24T02:14:00;8.77;;;7.47;;
13102;SDS011;52970;46.752;17.108;2023-03-24T02:16:36;7.57;;;6.82;;
13102;SDS011;52970;46.752;17.108;2023-03-24T02:19:12;10.00;;;7.10;;
13102;SDS011;52970;46.752;17.108;2023-03-24T02:24:17;8.05;;;6.97;;
13102;SDS011;52970;46.752;17.108;2023-03-24T02:42:15;13.25;;;9.65;;
13102;SDS011;52970;46.752;17.108;2023-03-24T02:44:49;22.70;;;10.93;;
13102;SDS011;52970;46.752;17.108;2023-03-24T02:47:21;20.42;;;11.68;;
13102;SDS011;52970;46.752;17.108;2023-03-24T02:55:27;11.07;;;8.80;;
13102;SDS011;52970;46.752;17.108;2023-03-24T03:03:11;9.05;;;7.15;;
13102;SDS011;52970;46.752;17.108;2023-03-24T03:05:51;9.63;;;7.30;;
13102;SDS011;52970;46.752;17.108;2023-03-24T03:08:17;9.82;;;6.88;;
13102;SDS011;52970;46.752;17.108;2023-03-24T03:10:46;7.88;;;6.93;;
13102;SDS011;52970;46.752;17.108;2023-03-24T03:13:14;8.15;;;6.60;;
13102;SDS011;52970;46.752;17.108;2023-03-24T03:15:42;12.05;;;8.82;;
13102;SDS011;52970;46.752;17.108;2023-03-24T03:21:05;8.05;;;7.25;;
13102;SDS011;52970;46.752;17.108;2023-03-24T03:23:35;9.07;;;7.43;;
13102;SDS011;52970;46.752;17.108;2023-03-24T03:26:02;12.13;;;10.05;;
13102;SDS011;52970;46.752;17.108;2023-03-24T03:28:30;10.07;;;8.70;;
13102;SDS011;52970;46.752;17.108;2023-03-24T03:30:57;9.40;;;8.50;;
13102;SDS011;52970;46.752;17.108;2023-03-24T03:33:25;9.95;;;8.48;;
13102;SDS011;52970;46.752;17.108;2023-03-24T03:35:52;12.05;;;9.35;;
13102;SDS011;52970;46.752;17.108;2023-03-24T03:40:51;18.92;;;13.35;;
13102;SDS011;52970;46.752;17.108;2023-03-24T03:43:18;24.33;;;13.45;;
13102;SDS011;52970;46.752;17.108;2023-03-24T03:45:43;21.77;;;13.75;;
13102;SDS011;52970;46.752;17.108;2023-03-24T03:48:09;22.77;;;13.23;;
13102;SDS011;52970;46.752;17.108;2023-03-24T03:50:34;14.68;;;10.82;;
13102;SDS011;52970;46.752;17.108;2023-03-24T03:53:00;9.40;;;8.02;;
13102;SDS011;52970;46.752;17.108;2023-03-24T03:55:25;12.10;;;9.35;;
13102;SDS011;52970;46.752;17.108;2023-03-24T03:57:51;8.38;;;7.30;;
13102;SDS011;52970;46.752;17.108;2023-03-24T04:00:17;97.25;;;28.02;;
13102;SDS011;52970;46.752;17.108;2023-03-24T04:05:34;90.70;;;27.63;;
13102;SDS011;52970;46.752;17.108;2023-03-24T04:08:20;22.35;;;13.82;;
13102;SDS011;52970;46.752;17.108;2023-03-24T04:23:44;13.90;;;8.73;;
13102;SDS011;52970;46.752;17.108;2023-03-24T04:26:15;13.60;;;8.68;;
13102;SDS011;52970;46.752;17.108;2023-03-24T04:33:51;9.98;;;8.02;;
13102;SDS011;52970;46.752;17.108;2023-03-24T04:38:47;12.35;;;8.45;;
13102;SDS011;52970;46.752;17.108;2023-03-24T04:41:14;9.93;;;8.13;;
13102;SDS011;52970;46.752;17.108;2023-03-24T04:43:41;14.63;;;10.43;;
13102;SDS011;52970;46.752;17.108;2023-03-24T04:46:07;22.77;;;14.32;;
13102;SDS011;52970;46.752;17.108;2023-03-24T04:48:33;13.52;;;9.75;;
13102;SDS011;52970;46.752;17.108;2023-03-24T04:50:59;17.10;;;11.38;;
13102;SDS011;52970;46.752;17.108;2023-03-24T04:53:25;22.65;;;12.82;;
13102;SDS011;52970;46.752;17.108;2023-03-24T04:58:28;16.42;;;10.98;;
13102;SDS011;52970;46.752;17.108;2023-03-24T05:00:53;13.43;;;10.43;;
13102;SDS011;52970;46.752;17.108;2023-03-24T05:03:20;13.63;;;9.93;;
13102;SDS011;52970;46.752;17.108;2023-03-24T05:05:46;15.55;;;9.43;;
13102;SDS011;52970;46.752;17.108;2023-03-24T05:08:12;9.73;;;8.73;;
13102;SDS011;52970;46.752;17.108;2023-03-24T05:10:38;11.68;;;8.75;;
13102;SDS011;52970;46.752;17.108;2023-03-24T05:13:03;11.20;;;9.23;;
13102;SDS011;52970;46.752;17.108;2023-03-24T05:15:29;10.40;;;8.80;;
13102;SDS011;52970;46.752;17.108;2023-03-24T05:17:55;13.32;;;9.52;;
13102;SDS011;52970;46.752;17.108;2023-03-24T05:20:20;12.82;;;8.88;;
13102;SDS011;52970;46.752;17.108;2023-03-24T05:22:46;15.70;;;9.90;;
13102;SDS011;52970;46.752;17.108;2023-03-24T05:25:12;16.63;;;10.88;;
13102;SDS011;52970;46.752;17.108;2023-03-24T05:27:38;38.28;;;16.75;;
13102;SDS011;52970;46.752;17.108;2023-03-24T05:30:04;18.55;;;10.30;;
13102;SDS011;52970;46.752;17.108;2023-03-24T05:32:30;12.57;;;9.95;;
13102;SDS011;52970;46.752;17.108;2023-03-24T05:34:55;15.80;;;11.05;;
13102;SDS011;52970;46.752;17.108;2023-03-24T05:37:21;15.63;;;10.95;;
13102;SDS011;52970;46.752;17.108;2023-03-24T05:39:46;19.95;;;13.82;;
13102;SDS011;52970;46.752;17.108;2023-03-24T05:42:11;81.28;;;31.77;;
13102;SDS011;52970;46.752;17.108;2023-03-24T05:44:36;84.88;;;39.25;;
13102;SDS011;52970;46.752;17.108;2023-03-24T05:47:02;146.85;;;58.92;;
13102;SDS011;52970;46.752;17.108;2023-03-24T05:49:27;93.28;;;39.03;;
13102;SDS011;52970;46.752;17.108;2023-03-24T05:51:52;40.08;;;22.45;;
13102;SDS011;52970;46.752;17.108;2023-03-24T05:54:18;22.42;;;13.75;;
13102;SDS011;52970;46.752;17.108;2023-03-24T05:56:43;18.27;;;12.60;;
13102;SDS011;52970;46.752;17.108;2023-03-24T05:59:08;24.75;;;13.80;;
13102;SDS011;52970;46.752;17.108;2023-03-24T06:01:35;28.33;;;15.23;;
13102;SDS011;52970;46.752;17.108;2023-03-24T06:04:00;15.98;;;12.23;;
13102;SDS011;52970;46.752;17.108;2023-03-24T06:06:26;21.33;;;12.55;;
13102;SDS011;52970;46.752;17.108;2023-03-24T06:08:52;14.90;;;11.10;;
13102;SDS011;52970;46.752;17.108;2023-03-24T06:11:18;17.35;;;12.63;;
13102;SDS011;52970;46.752;17.108;2023-03-24T06:13:44;20.15;;;14.95;;
13102;SDS011;52970;46.752;17.108;2023-03-24T06:16:09;22.77;;;15.15;;
13102;SDS011;52970;46.752;17.108;2023-03-24T06:18:34;14.73;;;10.55;;
13102;SDS011;52970;46.752;17.108;2023-03-24T06:21:00;17.83;;;14.45;;
13102;SDS011;52970;46.752;17.108;2023-03-24T06:23:25;15.13;;;13.27;;
13102;SDS011;52970;46.752;17.108;2023-03-24T06:25:52;17.15;;;13.10;;
13102;SDS011;52970;46.752;17.108;2023-03-24T06:28:18;12.05;;;9.75;;
13102;SDS011;52970;46.752;17.108;2023-03-24T06:30:43;11.50;;;8.57;;
13102;SDS011;52970;46.752;17.108;2023-03-24T06:33:11;10.20;;;9.05;;
13102;SDS011;52970;46.752;17.108;2023-03-24T06:35:36;10.43;;;8.50;;
13102;SDS011;52970;46.752;17.108;2023-03-24T06:38:02;10.25;;;9.15;;
13102;SDS011;52970;46.752;17.108;2023-03-24T06:40:28;12.38;;;8.75;;
13102;SDS011;52970;46.752;17.108;2023-03-24T06:42:53;9.50;;;8.50;;
13102;SDS011;52970;46.752;17.108;2023-03-24T06:45:19;9.45;;;8.45;;
13102;SDS011;52970;46.752;17.108;2023-03-24T06:47:44;15.48;;;10.43;;
13102;SDS011;52970;46.752;17.108;2023-03-24T06:50:10;10.52;;;9.45;;
13102;SDS011;52970;46.752;17.108;2023-03-24T06:52:35;9.20;;;8.10;;
13102;SDS011;52970;46.752;17.108;2023-03-24T06:55:01;9.10;;;8.07;;
13102;SDS011;52970;46.752;17.108;2023-03-24T06:57:26;9.07;;;8.27;;
13102;SDS011;52970;46.752;17.108;2023-03-24T06:59:52;9.93;;;8.35;;
13102;SDS011;52970;46.752;17.108;2023-03-24T07:02:18;9.45;;;8.30;;
13102;SDS011;52970;46.752;17.108;2023-03-24T07:04:44;9.23;;;8.32;;
13102;SDS011;52970;46.752;17.108;2023-03-24T07:07:09;9.27;;;8.35;;
13102;SDS011;52970;46.752;17.108;2023-03-24T07:09:36;9.10;;;8.02;;
13102;SDS011;52970;46.752;17.108;2023-03-24T07:12:01;11.40;;;9.45;;
13102;SDS011;52970;46.752;17.108;2023-03-24T07:14:27;11.82;;;9.80;;
13102;SDS011;52970;46.752;17.108;2023-03-24T07:16:52;10.80;;;8.68;;
13102;SDS011;52970;46.752;17.108;2023-03-24T07:19:18;9.38;;;7.93;;
13102;SDS011;52970;46.752;17.108;2023-03-24T07:21:43;9.98;;;8.35;;
13102;SDS011;52970;46.752;17.108;2023-03-24T07:24:10;8.80;;;7.88;;
13102;SDS011;52970;46.752;17.108;2023-03-24T07:26:36;9.23;;;8.32;;
13102;SDS011;52970;46.752;17.108;2023-03-24T07:29:01;9.18;;;8.27;;
13102;SDS011;52970;46.752;17.108;2023-03-24T07:31:26;9.40;;;8.18;;
13102;SDS011;52970;46.752;17.108;2023-03-24T07:33:52;9.63;;;8.70;;
13102;SDS011;52970;46.752;17.108;2023-03-24T07:36:17;8.98;;;8.05;;
13102;SDS011;52970;46.752;17.108;2023-03-24T07:38:43;11.48;;;7.65;;
13102;SDS011;52970;46.752;17.108;2023-03-24T07:41:08;8.43;;;7.63;;
13102;SDS011;52970;46.752;17.108;2023-03-24T07:43:34;9.35;;;8.10;;
13102;SDS011;52970;46.752;17.108;2023-03-24T07:45:59;9.13;;;7.60;;
13102;SDS011;52970;46.752;17.108;2023-03-24T07:48:25;8.27;;;7.45;;
13102;SDS011;52970;46.752;17.108;2023-03-24T07:50:51;9.02;;;7.60;;
13102;SDS011;52970;46.752;17.108;2023-03-24T07:53:16;8.63;;;7.30;;
13102;SDS011;52970;46.752;17.108;2023-03-24T07:55:44;8.60;;;7.47;;
13102;SDS011;52970;46.752;17.108;2023-03-24T07:58:09;8.40;;;7.50;;
13102;SDS011;52970;46.752;17.108;2023-03-24T08:00:34;8.38;;;7.47;;
13102;SDS011;52970;46.752;17.108;2023-03-24T08:03:01;9.25;;;7.40;;
13102;SDS011;52970;46.752;17.108;2023-03-24T08:05:28;9.50;;;8.10;;
13102;SDS011;52970;46.752;17.108;2023-03-24T08:07:53;9.07;;;7.93;;
13102;SDS011;52970;46.752;17.108;2023-03-24T08:10:24;9.40;;;7.70;;
13102;SDS011;52970;46.752;17.108;2023-03-24T08:12:50;14.02;;;9.10;;
13102;SDS011;52970;46.752;17.108;2023-03-24T08:15:15;11.00;;;8.45;;
13102;SDS011;52970;46.752;17.108;2023-03-24T08:17:41;15.30;;;9.35;;
13102;SDS011;52970;46.752;17.108;2023-03-24T08:20:07;14.40;;;9.70;;
13102;SDS011;52970;46.752;17.108;2023-03-24T08:22:35;12.93;;;9.13;;
13102;SDS011;52970;46.752;17.108;2023-03-24T08:25:01;13.98;;;11.05;;
13102;SDS011;52970;46.752;17.108;2023-03-24T08:27:26;12.65;;;9.50;;
13102;SDS011;52970;46.752;17.108;2023-03-24T08:29:51;11.85;;;8.85;;
13102;SDS011;52970;46.752;17.108;2023-03-24T08:32:16;10.45;;;8.95;;
13102;SDS011;52970;46.752;17.108;2023-03-24T08:34:42;10.25;;;8.55;;
13102;SDS011;52970;46.752;17.108;2023-03-24T08:37:07;16.33;;;9.32;;
13102;SDS011;52970;46.752;17.108;2023-03-24T08:39:32;12.93;;;9.95;;
13102;SDS011;52970;46.752;17.108;2023-03-24T08:41:59;14.75;;;9.57;;
13102;SDS011;52970;46.752;17.108;2023-03-24T08:44:25;14.45;;;9.60;;
13102;SDS011;52970;46.752;17.108;2023-03-24T08:46:50;14.27;;;9.85;;
13102;SDS011;52970;46.752;17.108;2023-03-24T08:49:16;18.13;;;10.38;;
13102;SDS011;52970;46.752;17.108;2023-03-24T08:51:41;12.82;;;10.32;;
13102;SDS011;52970;46.752;17.108;2023-03-24T08:54:07;14.98;;;9.93;;
13102;SDS011;52970;46.752;17.108;2023-03-24T08:56:33;12.05;;;9.15;;
13102;SDS011;52970;46.752;17.108;2023-03-24T08:58:58;12.65;;;9.70;;
13102;SDS011;52970;46.752;17.108;2023-03-24T09:01:23;14.32;;;9.80;;
13102;SDS011;52970;46.752;17.108;2023-03-24T09:03:49;18.58;;;10.18;;
13102;SDS011;52970;46.752;17.108;2023-03-24T09:06:15;17.48;;;10.23;;
13102;SDS011;52970;46.752;17.108;2023-03-24T09:08:40;13.38;;;9.90;;
13102;SDS011;52970;46.752;17.108;2023-03-24T09:11:10;13.70;;;9.68;;
13102;SDS011;52970;46.752;17.108;2023-03-24T09:13:37;12.35;;;9.50;;
13102;SDS011;52970;46.752;17.108;2023-03-24T09:16:02;10.93;;;9.02;;
13102;SDS011;52970;46.752;17.108;2023-03-24T09:18:28;15.23;;;9.45;;
13102;SDS011;52970;46.752;17.108;2023-03-24T09:20:53;13.40;;;9.52;;
13102;SDS011;52970;46.752;17.108;2023-03-24T09:23:19;15.15;;;10.18;;
13102;SDS011;52970;46.752;17.108;2023-03-24T09:25:46;13.25;;;9.60;;
13102;SDS011;52970;46.752;17.108;2023-03-24T09:28:12;11.20;;;9.68;;
13102;SDS011;52970;46.752;17.108;2023-03-24T09:30:38;13.55;;;9.63;;
13102;SDS011;52970;46.752;17.108;2023-03-24T09:33:04;11.60;;;9.52;;
13102;SDS011;52970;46.752;17.108;2023-03-24T09:35:30;11.63;;;9.07;;
13102;SDS011;52970;46.752;17.108;2023-03-24T09:37:55;11.27;;;8.23;;
13102;SDS011;52970;46.752;17.108;2023-03-24T09:40:22;14.43;;;8.43;;
13102;SDS011;52970;46.752;17.108;2023-03-24T09:42:50;11.73;;;8.52;;
13102;SDS011;52970;46.752;17.108;2023-03-24T09:45:17;12.38;;;8.15;;
13102;SDS011;52970;46.752;17.108;2023-03-24T09:47:52;11.85;;;8.57;;
13102;SDS011;52970;46.752;17.108;2023-03-24T09:50:24;11.88;;;7.50;;
13102;SDS011;52970;46.752;17.108;2023-03-24T09:52:51;11.23;;;7.43;;
13102;SDS011;52970;46.752;17.108;2023-03-24T09:55:25;7.55;;;6.50;;
13102;SDS011;52970;46.752;17.108;2023-03-24T09:57:52;13.93;;;7.68;;
13102;SDS011;52970;46.752;17.108;2023-03-24T10:00:20;10.43;;;7.30;;
13102;SDS011;52970;46.752;17.108;2023-03-24T10:02:46;13.13;;;7.25;;
13102;SDS011;52970;46.752;17.108;2023-03-24T10:05:12;10.27;;;6.85;;
13102;SDS011;52970;46.752;17.108;2023-03-24T10:10:37;9.02;;;6.60;;
13102;SDS011;52970;46.752;17.108;2023-03-24T10:13:05;8.13;;;6.75;;
13102;SDS011;52970;46.752;17.108;2023-03-24T10:15:32;10.02;;;6.88;;
13102;SDS011;52970;46.752;17.108;2023-03-24T10:20:43;9.38;;;6.82;;
13102;SDS011;52970;46.752;17.108;2023-03-24T10:28:49;8.90;;;6.15;;
13102;SDS011;52970;46.752;17.108;2023-03-24T10:31:15;9.00;;;6.80;;
13102;SDS011;52970;46.752;17.108;2023-03-24T10:33:43;9.77;;;6.00;;
13102;SDS011;52970;46.752;17.108;2023-03-24T10:36:12;8.02;;;5.88;;
13102;SDS011;52970;46.752;17.108;2023-03-24T10:38:38;8.23;;;6.38;;
13102;SDS011;52970;46.752;17.108;2023-03-24T10:41:04;9.63;;;6.22;;
13102;SDS011;52970;46.752;17.108;2023-03-24T10:43:29;8.35;;;6.13;;
13102;SDS011;52970;46.752;17.108;2023-03-24T10:45:56;8.98;;;6.00;;
13102;SDS011;52970;46.752;17.108;2023-03-24T10:48:39;7.38;;;6.38;;
13102;SDS011;52970;46.752;17.108;2023-03-24T10:51:05;6.65;;;5.97;;
13102;SDS011;52970;46.752;17.108;2023-03-24T10:53:31;9.65;;;6.40;;
13102;SDS011;52970;46.752;17.108;2023-03-24T10:55:57;6.85;;;5.68;;
13102;SDS011;52970;46.752;17.108;2023-03-24T10:58:36;7.65;;;6.50;;
13102;SDS011;52970;46.752;17.108;2023-03-24T11:01:02;6.22;;;4.88;;
13102;SDS011;52970;46.752;17.108;2023-03-24T11:03:33;5.88;;;5.00;;
13102;SDS011;52970;46.752;17.108;2023-03-24T11:06:00;7.00;;;5.13;;
13102;SDS011;52970;46.752;17.108;2023-03-24T11:08:33;7.70;;;5.63;;
13102;SDS011;52970;46.752;17.108;2023-03-24T11:10:59;8.23;;;5.30;;
13102;SDS011;52970;46.752;17.108;2023-03-24T11:13:27;7.20;;;5.00;;
13102;SDS011;52970;46.752;17.108;2023-03-24T11:15:54;8.05;;;4.38;;
13102;SDS011;52970;46.752;17.108;2023-03-24T11:18:20;4.97;;;4.32;;
13102;SDS011;52970;46.752;17.108;2023-03-24T11:20:52;5.13;;;4.63;;
13102;SDS011;52970;46.752;17.108;2023-03-24T11:23:33;6.72;;;4.68;;
13102;SDS011;52970;46.752;17.108;2023-03-24T11:26:12;5.30;;;4.80;;
13102;SDS011;52970;46.752;17.108;2023-03-24T11:28:45;6.57;;;4.65;;
13102;SDS011;52970;46.752;17.108;2023-03-24T11:31:11;7.82;;;4.97;;
13102;SDS011;52970;46.752;17.108;2023-03-24T11:34:29;7.80;;;5.03;;
13102;SDS011;52970;46.752;17.108;2023-03-24T11:39:00;5.35;;;4.30;;
13102;SDS011;52970;46.752;17.108;2023-03-24T11:41:26;5.35;;;4.45;;
13102;SDS011;52970;46.752;17.108;2023-03-24T11:44:07;5.03;;;4.43;;
13102;SDS011;52970;46.752;17.108;2023-03-24T11:46:37;4.60;;;4.13;;
13102;SDS011;52970;46.752;17.108;2023-03-24T11:49:03;6.35;;;4.40;;
13102;SDS011;52970;46.752;17.108;2023-03-24T11:51:36;4.90;;;4.40;;
13102;SDS011;52970;46.752;17.108;2023-03-24T11:54:04;6.68;;;4.30;;
13102;SDS011;52970;46.752;17.108;2023-03-24T11:56:44;6.72;;;4.07;;
13102;SDS011;52970;46.752;17.108;2023-03-24T11:59:26;6.22;;;4.32;;
13102;SDS011;52970;46.752;17.108;2023-03-24T12:02:02;5.38;;;3.83;;
13102;SDS011;52970;46.752;17.108;2023-03-24T12:04:35;4.68;;;3.72;;
13102;SDS011;52970;46.752;17.108;2023-03-24T12:09:48;4.55;;;4.00;;
13102;SDS011;52970;46.752;17.108;2023-03-24T12:12:19;3.75;;;3.45;;
13102;SDS011;52970;46.752;17.108;2023-03-24T12:17:17;3.40;;;3.10;;
13102;SDS011;52970;46.752;17.108;2023-03-24T12:20:03;3.40;;;3.10;;
13102;SDS011;52970;46.752;17.108;2023-03-24T12:30:09;4.40;;;2.83;;
13102;SDS011;52970;46.752;17.108;2023-03-24T12:35:20;9.95;;;3.03;;
13102;SDS011;52970;46.752;17.108;2023-03-24T12:40:34;3.20;;;2.45;;
13102;SDS011;52970;46.752;17.108;2023-03-24T12:43:09;2.83;;;2.50;;
13102;SDS011;52970;46.752;17.108;2023-03-24T12:58:44;3.20;;;2.90;;
13102;SDS011;52970;46.752;17.108;2023-03-24T13:03:50;3.30;;;2.70;;
13102;SDS011;52970;46.752;17.108;2023-03-24T13:06:20;4.47;;;2.70;;
13102;SDS011;52970;46.752;17.108;2023-03-24T13:11:30;3.35;;;2.78;;
13102;SDS011;52970;46.752;17.108;2023-03-24T13:13:58;2.90;;;2.63;;
13102;SDS011;52970;46.752;17.108;2023-03-24T13:16:26;2.75;;;2.50;;
13102;SDS011;52970;46.752;17.108;2023-03-24T13:18:54;13.13;;;3.10;;
13102;SDS011;52970;46.752;17.108;2023-03-24T13:21:23;4.70;;;2.85;;
13102;SDS011;52970;46.752;17.108;2023-03-24T13:31:22;3.83;;;2.70;;
13102;SDS011;52970;46.752;17.108;2023-03-24T13:33:48;2.65;;;2.42;;
13102;SDS011;52970;46.752;17.108;2023-03-24T13:38:48;2.70;;;2.50;;
13102;SDS011;52970;46.752;17.108;2023-03-24T13:41:19;3.58;;;2.60;;
13102;SDS011;52970;46.752;17.108;2023-03-24T13:43:56;2.42;;;2.22;;
13102;SDS011;52970;46.752;17.108;2023-03-24T13:46:22;3.92;;;2.55;;
13102;SDS011;52970;46.752;17.108;2023-03-24T13:48:52;3.22;;;2.47;;
13102;SDS011;52970;46.752;17.108;2023-03-24T13:53:45;3.45;;;2.72;;
13102;SDS011;52970;46.752;17.108;2023-03-24T13:56:20;3.47;;;2.80;;
13102;SDS011;52970;46.752;17.108;2023-03-24T14:01:29;4.30;;;2.85;;
13102;SDS011;52970;46.752;17.108;2023-03-24T14:06:43;3.20;;;2.90;;
13102;SDS011;52970;46.752;17.108;2023-03-24T14:12:27;4.95;;;2.85;;
13102;SDS011;52970;46.752;17.108;2023-03-24T14:14:34;3.25;;;2.50;;
13102;SDS011;52970;46.752;17.108;2023-03-24T14:17:15;3.10;;;2.80;;
13102;SDS011;52970;46.752;17.108;2023-03-24T14:24:38;3.00;;;2.70;;
13102;SDS011;52970;46.752;17.108;2023-03-24T14:27:37;3.05;;;2.78;;
13102;SDS011;52970;46.752;17.108;2023-03-24T14:29:58;6.65;;;2.67;;
13102;SDS011;52970;46.752;17.108;2023-03-24T14:32:24;4.13;;;2.70;;
13102;SDS011;52970;46.752;17.108;2023-03-24T14:34:51;3.30;;;2.80;;
13102;SDS011;52970;46.752;17.108;2023-03-24T14:37:17;3.05;;;2.63;;
13102;SDS011;52970;46.752;17.108;2023-03-24T14:39:43;3.20;;;3.00;;
13102;SDS011;52970;46.752;17.108;2023-03-24T14:42:26;5.65;;;3.00;;
13102;SDS011;52970;46.752;17.108;2023-03-24T14:44:53;3.00;;;2.80;;
13102;SDS011;52970;46.752;17.108;2023-03-24T14:47:19;2.88;;;2.60;;
13102;SDS011;52970;46.752;17.108;2023-03-24T14:49:45;3.28;;;2.55;;
13102;SDS011;52970;46.752;17.108;2023-03-24T14:52:19;3.88;;;2.80;;
13102;SDS011;52970;46.752;17.108;2023-03-24T14:57:15;5.75;;;3.00;;
13102;SDS011;52970;46.752;17.108;2023-03-24T14:59:46;3.00;;;2.80;;
13102;SDS011;52970;46.752;17.108;2023-03-24T15:07:40;4.68;;;2.85;;
13102;SDS011;52970;46.752;17.108;2023-03-24T15:10:05;3.03;;;2.72;;
13102;SDS011;52970;46.752;17.108;2023-03-24T15:12:31;3.45;;;2.92;;
13102;SDS011;52970;46.752;17.108;2023-03-24T15:14:57;5.13;;;3.42;;
13102;SDS011;52970;46.752;17.108;2023-03-24T15:17:22;4.05;;;3.42;;
13102;SDS011;52970;46.752;17.108;2023-03-24T15:19:49;7.43;;;3.00;;
13102;SDS011;52970;46.752;17.108;2023-03-24T15:22:15;4.13;;;3.22;;
13102;SDS011;52970;46.752;17.108;2023-03-24T15:24:40;3.75;;;2.80;;
13102;SDS011;52970;46.752;17.108;2023-03-24T15:29:38;4.25;;;3.00;;
13102;SDS011;52970;46.752;17.108;2023-03-24T15:32:04;3.45;;;2.72;;
13102;SDS011;52970;46.752;17.108;2023-03-24T15:34:39;6.15;;;2.55;;
13102;SDS011;52970;46.752;17.108;2023-03-24T15:37:05;4.03;;;3.20;;
13102;SDS011;52970;46.752;17.108;2023-03-24T15:39:33;3.00;;;2.70;;
13102;SDS011;52970;46.752;17.108;2023-03-24T15:41:58;3.60;;;2.70;;
13102;SDS011;52970;46.752;17.108;2023-03-24T15:44:25;2.60;;;2.35;;
13102;SDS011;52970;46.752;17.108;2023-03-24T15:46:52;3.22;;;2.95;;
13102;SDS011;52970;46.752;17.108;2023-03-24T15:49:20;3.05;;;2.75;;
13102;SDS011;52970;46.752;17.108;2023-03-24T15:51:51;3.13;;;2.83;;
13102;SDS011;52970;46.752;17.108;2023-03-24T15:54:19;3.35;;;3.05;;
13102;SDS011;52970;46.752;17.108;2023-03-24T15:56:57;3.30;;;3.00;;
13102;SDS011;52970;46.752;17.108;2023-03-24T15:59:23;3.17;;;2.70;;
13102;SDS011;52970;46.752;17.108;2023-03-24T16:01:48;2.80;;;2.60;;
13102;SDS011;52970;46.752;17.108;2023-03-24T16:04:14;3.83;;;3.05;;
13102;SDS011;52970;46.752;17.108;2023-03-24T16:06:47;3.63;;;2.90;;
13102;SDS011;52970;46.752;17.108;2023-03-24T16:09:14;3.80;;;3.20;;
13102;SDS011;52970;46.752;17.108;2023-03-24T16:11:40;3.95;;;3.30;;
13102;SDS011;52970;46.752;17.108;2023-03-24T16:14:25;5.28;;;3.10;;
13102;SDS011;52970;46.752;17.108;2023-03-24T16:16:54;5.20;;;3.38;;
13102;SDS011;52970;46.752;17.108;2023-03-24T16:19:19;4.53;;;3.15;;
13102;SDS011;52970;46.752;17.108;2023-03-24T16:21:45;4.28;;;3.42;;
13102;SDS011;52970;46.752;17.108;2023-03-24T16:24:10;6.22;;;3.13;;
13102;SDS011;52970;46.752;17.108;2023-03-24T16:26:35;6.55;;;4.75;;
13102;SDS011;52970;46.752;17.108;2023-03-24T16:31:35;3.67;;;3.03;;
13102;SDS011;52970;46.752;17.108;2023-03-24T16:34:01;5.97;;;4.13;;
13102;SDS011;52970;46.752;17.108;2023-03-24T16:36:26;8.48;;;5.47;;
13102;SDS011;52970;46.752;17.108;2023-03-24T16:38:56;6.45;;;4.25;;
13102;SDS011;52970;46.752;17.108;2023-03-24T16:41:21;3.90;;;3.55;;
13102;SDS011;52970;46.752;17.108;2023-03-24T16:43:47;5.25;;;3.72;;
13102;SDS011;52970;46.752;17.108;2023-03-24T16:46:13;5.88;;;3.92;;
13102;SDS011;52970;46.752;17.108;2023-03-24T16:48:40;3.75;;;3.38;;
13102;SDS011;52970;46.752;17.108;2023-03-24T16:51:08;3.58;;;3.28;;
13102;SDS011;52970;46.752;17.108;2023-03-24T16:53:34;5.55;;;3.60;;
13102;SDS011;52970;46.752;17.108;2023-03-24T16:56:00;3.65;;;3.30;;
13102;SDS011;52970;46.752;17.108;2023-03-24T16:58:25;5.05;;;3.35;;